createdAt,value
2018-08-11T00:02:46.371Z,17.70
2018-08-11T00:07:39.734Z,17.60
2018-08-11T00:12:33.140Z,17.50
2018-08-11T00:17:26.511Z,17.30
2018-08-11T00:22:19.996Z,17.30
2018-08-11T00:27:13.383Z,17.10
2018-08-11T00:32:06.900Z,17.10
2018-08-11T00:37:00.313Z,17.10
2018-08-11T00:41:53.625Z,17.20
2018-08-11T00:46:47.083Z,17.40
2018-08-11T00:51:40.463Z,17.60
2018-08-11T00:56:33.858Z,17.70
2018-08-11T01:01:27.816Z,17.70
2018-08-11T01:06:21.127Z,17.80
2018-08-11T01:11:14.574Z,17.80
2018-08-11T01:16:08.095Z,17.80
2018-08-11T01:21:01.459Z,17.80
2018-08-11T01:25:54.857Z,17.70
2018-08-11T01:30:48.228Z,17.60
2018-08-11T01:35:41.646Z,17.80
2018-08-11T01:40:35.067Z,18.00
2018-08-11T01:45:28.447Z,18.20
2018-08-11T01:50:21.865Z,18.40
2018-08-11T01:55:16.591Z,18.40
2018-08-11T02:00:12.046Z,18.20
2018-08-11T02:05:06.012Z,18.10
2018-08-11T02:09:59.410Z,18.00
2018-08-11T02:14:52.828Z,17.70
2018-08-11T02:19:46.246Z,17.40
2018-08-11T02:24:39.726Z,17.40
2018-08-11T02:29:33.077Z,17.40
2018-08-11T02:34:26.511Z,17.10
2018-08-11T02:39:19.906Z,17.00
2018-08-11T02:44:13.334Z,17.00
2018-08-11T02:49:07.758Z,16.80
2018-08-11T02:54:01.769Z,16.70
2018-08-11T02:58:55.158Z,16.50
2018-08-11T03:03:48.488Z,16.40
2018-08-11T03:08:42.154Z,16.60
2018-08-11T03:13:35.504Z,16.30
2018-08-11T03:18:28.883Z,16.20
2018-08-11T03:23:22.242Z,16.20
2018-08-11T03:28:15.594Z,16.10
2018-08-11T03:33:09.054Z,15.70
2018-08-11T03:38:03.146Z,15.50
2018-08-11T03:42:57.676Z,15.30
2018-08-11T03:47:51.225Z,15.30
2018-08-11T03:52:45.575Z,15.40
2018-08-11T03:57:39.338Z,15.30
2018-08-11T04:02:34.196Z,15.20
2018-08-11T04:07:27.625Z,15.10
2018-08-11T04:12:21.201Z,15.00
2018-08-11T04:17:14.548Z,14.90
2018-08-11T04:22:09.857Z,14.90
2018-08-11T04:27:03.210Z,14.80
2018-08-11T04:31:56.554Z,14.80
2018-08-11T04:36:51.107Z,14.90
2018-08-11T04:41:45.151Z,14.90
2018-08-11T04:46:40.781Z,15.00
2018-08-11T04:51:35.281Z,15.10
2018-08-11T04:56:30.085Z,15.30
2018-08-11T05:01:24.170Z,15.60
2018-08-11T05:06:17.530Z,15.80
2018-08-11T05:11:10.836Z,15.80
2018-08-11T05:16:04.293Z,15.90
2018-08-11T05:20:57.605Z,15.90
2018-08-11T05:25:50.974Z,16.00
2018-08-11T05:30:44.514Z,16.30
2018-08-11T05:35:38.563Z,17.00
2018-08-11T05:40:32.621Z,17.50
2018-08-11T05:45:26.368Z,19.10
2018-08-11T05:50:19.729Z,19.70
2018-08-11T05:55:13.147Z,21.70
2018-08-11T06:00:08.508Z,22.50
2018-08-11T06:05:01.873Z,23.40
2018-08-11T06:09:55.163Z,24.50
2018-08-11T06:14:48.544Z,24.10
2018-08-11T06:19:41.965Z,24.20
2018-08-11T06:24:35.332Z,26.00
2018-08-11T06:29:28.699Z,26.40
2018-08-11T06:34:22.074Z,24.60
2018-08-11T06:39:15.415Z,23.40
2018-08-11T06:44:09.240Z,23.30
2018-08-11T06:49:02.630Z,24.80
2018-08-11T06:53:55.982Z,27.40
2018-08-11T06:58:49.320Z,29.00
2018-08-11T07:03:42.704Z,27.90
2018-08-11T07:08:36.052Z,27.80
2018-08-11T07:13:29.402Z,26.40
2018-08-11T07:18:22.724Z,27.10
2018-08-11T07:23:16.089Z,26.40
2018-08-11T07:28:09.458Z,26.80
2018-08-11T07:33:02.833Z,28.30
2018-08-11T07:37:56.152Z,31.40
2018-08-11T07:42:56.504Z,32.00
2018-08-11T07:47:49.898Z,31.70
2018-08-11T07:52:43.326Z,29.00
2018-08-11T07:57:36.729Z,29.20
2018-08-11T08:02:30.067Z,30.40
2018-08-11T08:07:23.434Z,29.60
2018-08-11T08:12:16.785Z,29.30
2018-08-11T08:17:10.161Z,30.50
2018-08-11T08:22:03.487Z,31.90
2018-08-11T08:26:56.899Z,32.30
2018-08-11T08:31:50.301Z,30.20
2018-08-11T08:36:43.668Z,28.80
2018-08-11T08:41:37.113Z,31.00
2018-08-11T08:46:30.478Z,32.00
2018-08-11T08:51:23.832Z,32.90
2018-08-11T08:56:17.220Z,33.20
2018-08-11T09:01:10.589Z,31.50
2018-08-11T09:06:03.960Z,31.70
2018-08-11T09:10:57.986Z,31.30
2018-08-11T09:15:51.346Z,29.50
2018-08-11T09:20:44.766Z,30.70
2018-08-11T09:25:38.099Z,31.40
2018-08-11T09:30:31.480Z,32.20
2018-08-11T09:35:24.831Z,32.00
2018-08-11T09:40:18.188Z,30.40
2018-08-11T09:45:11.568Z,30.00
2018-08-11T09:50:05.018Z,31.50
2018-08-11T09:54:58.336Z,29.60
2018-08-11T09:59:51.711Z,28.10
2018-08-11T10:04:45.058Z,27.30
2018-08-11T10:09:38.512Z,27.60
2018-08-11T10:14:40.966Z,27.40
2018-08-11T10:19:44.194Z,27.90
2018-08-11T10:24:46.342Z,28.10
2018-08-11T10:29:39.915Z,27.80
2018-08-11T10:34:37.590Z,27.40
2018-08-11T10:39:39.991Z,26.60
2018-08-11T10:44:43.615Z,26.60
2018-08-11T10:49:47.353Z,26.60
2018-08-11T10:54:52.359Z,26.50
2018-08-11T10:59:55.666Z,26.80
2018-08-11T11:04:56.645Z,26.50
2018-08-11T11:09:57.331Z,26.20
2018-08-11T11:15:05.950Z,25.80
2018-08-11T11:20:11.388Z,25.80
2018-08-11T11:25:14.705Z,26.30
2018-08-11T11:30:15.243Z,25.80
2018-08-11T11:35:18.471Z,25.60
2018-08-11T11:40:17.567Z,25.40
2018-08-11T11:45:19.442Z,25.80
2018-08-11T11:50:22.728Z,26.20
2018-08-11T11:55:22.287Z,26.30
2018-08-11T12:00:24.534Z,26.60
2018-08-11T12:05:23.298Z,26.40
2018-08-11T12:10:24.995Z,25.60
2018-08-11T12:15:28.116Z,25.40
2018-08-11T12:20:29.832Z,25.70
2018-08-11T12:25:30.390Z,25.90
2018-08-11T12:30:24.025Z,25.70
2018-08-11T12:35:25.422Z,26.30
2018-08-11T12:40:19.772Z,26.20
2018-08-11T12:45:20.329Z,26.30
2018-08-11T12:50:20.841Z,26.20
2018-08-11T12:55:22.103Z,26.50
2018-08-11T13:00:23.030Z,26.10
2018-08-11T13:05:24.292Z,26.00
2018-08-11T13:10:26.769Z,26.30
2018-08-11T13:15:28.040Z,26.30
2018-08-11T13:20:26.223Z,26.10
2018-08-11T13:25:27.425Z,26.10
2018-08-11T13:30:21.160Z,26.00
2018-08-11T13:35:20.379Z,26.10
2018-08-11T13:40:13.952Z,26.20
2018-08-11T13:45:13.472Z,26.20
2018-08-11T13:50:13.929Z,26.10
2018-08-11T13:55:15.614Z,26.10
2018-08-11T14:00:18.210Z,25.70
2018-08-11T14:05:19.329Z,25.90
2018-08-11T14:10:20.031Z,26.10
2018-08-11T14:15:18.318Z,26.40
2018-08-11T14:20:18.636Z,26.40
2018-08-11T14:25:12.140Z,26.80
2018-08-11T14:30:15.019Z,26.80
2018-08-11T14:35:16.228Z,26.70
2018-08-11T14:40:17.916Z,26.40
2018-08-11T14:45:18.755Z,26.00
2018-08-11T14:50:24.276Z,26.20
2018-08-11T14:55:26.394Z,26.20
2018-08-11T15:00:27.383Z,26.50
2018-08-11T15:05:27.541Z,26.30
2018-08-11T15:10:21.349Z,26.40
2018-08-11T15:15:21.991Z,26.70
2018-08-11T15:20:21.638Z,26.90
2018-08-11T15:25:22.882Z,26.70
2018-08-11T15:30:23.253Z,26.30
2018-08-11T15:35:23.369Z,26.00
2018-08-11T15:40:23.789Z,25.90
2018-08-11T15:45:24.813Z,25.70
2018-08-11T15:50:20.848Z,25.70
2018-08-11T15:55:22.121Z,25.70
2018-08-11T16:00:23.245Z,25.70
2018-08-11T16:05:24.151Z,25.70
2018-08-11T16:10:23.515Z,25.30
2018-08-11T16:15:24.613Z,25.00
2018-08-11T16:20:18.251Z,25.10
2018-08-11T16:25:20.777Z,24.90
2018-08-11T16:30:18.401Z,24.60
2018-08-11T16:35:12.109Z,24.60
2018-08-11T16:40:13.509Z,24.40
2018-08-11T16:45:13.321Z,24.30
2018-08-11T16:50:13.038Z,24.10
2018-08-11T16:55:06.557Z,23.90
2018-08-11T16:59:59.985Z,23.90
2018-08-11T17:04:53.404Z,23.70
2018-08-11T17:09:46.834Z,23.60
2018-08-11T17:14:40.350Z,23.50
2018-08-11T17:19:33.708Z,23.50
2018-08-11T17:24:27.109Z,23.50
2018-08-11T17:29:20.452Z,23.60
2018-08-11T17:34:13.830Z,23.40
2018-08-11T17:39:09.388Z,23.30
2018-08-11T17:44:02.842Z,23.20
2018-08-11T17:48:56.280Z,23.10
2018-08-11T17:53:49.569Z,22.90
2018-08-11T17:58:42.962Z,22.70
2018-08-11T18:03:36.316Z,22.50
2018-08-11T18:08:29.644Z,22.30
2018-08-11T18:13:23.026Z,22.00
2018-08-11T18:18:16.365Z,21.90
2018-08-11T18:23:09.726Z,21.80
2018-08-11T18:28:03.187Z,21.60
2018-08-11T18:32:56.537Z,21.60
2018-08-11T18:37:49.922Z,21.40
2018-08-11T18:42:43.305Z,20.50
2018-08-11T18:47:36.647Z,21.10
2018-08-11T18:52:29.965Z,20.90
2018-08-11T18:57:23.337Z,20.70
2018-08-11T19:02:16.716Z,20.50
2018-08-11T19:07:10.162Z,20.30
2018-08-11T19:12:03.644Z,20.20
2018-08-11T19:16:56.998Z,20.00
2018-08-11T19:21:50.381Z,19.90
2018-08-11T19:26:43.728Z,19.70
2018-08-11T19:31:37.070Z,19.60
2018-08-11T19:36:30.507Z,19.50
2018-08-11T19:41:23.840Z,19.40
2018-08-11T19:46:17.367Z,19.30
2018-08-11T19:51:10.659Z,19.10
2018-08-11T19:56:04.278Z,19.10
2018-08-11T20:00:57.598Z,19.00
2018-08-11T20:05:51.049Z,18.90
2018-08-11T20:10:44.443Z,18.70
2018-08-11T20:15:37.844Z,18.60
2018-08-11T20:20:31.289Z,18.50
2018-08-11T20:25:24.854Z,18.40
2018-08-11T20:30:18.134Z,18.30
2018-08-11T20:35:11.612Z,18.20
2018-08-11T20:40:05.494Z,18.10
2018-08-11T20:44:58.935Z,18.00
2018-08-11T20:49:52.310Z,17.60
2018-08-11T20:54:45.810Z,17.60
2018-08-11T20:59:39.175Z,17.40
2018-08-11T21:04:32.605Z,17.30
2018-08-11T21:09:25.985Z,17.30
2018-08-11T21:14:19.448Z,17.20
2018-08-11T21:19:12.829Z,17.10
2018-08-11T21:24:06.230Z,17.10
2018-08-11T21:28:59.636Z,17.00
2018-08-11T21:33:53.060Z,16.90
2018-08-11T21:38:46.504Z,16.80
2018-08-11T21:43:39.920Z,16.70
2018-08-11T21:48:33.484Z,16.70
2018-08-11T21:53:26.879Z,16.70
2018-08-11T21:58:20.310Z,16.60
2018-08-11T22:03:13.720Z,16.50
2018-08-11T22:08:07.176Z,16.50
2018-08-11T22:13:00.711Z,16.40
2018-08-11T22:17:54.261Z,16.40
2018-08-11T22:22:47.712Z,16.30
2018-08-11T22:27:41.753Z,16.20
2018-08-11T22:32:35.542Z,16.20
2018-08-11T22:37:28.934Z,16.10
2018-08-11T22:42:22.298Z,16.10
2018-08-11T22:47:15.760Z,16.10
2018-08-11T22:52:09.121Z,16.00
2018-08-11T22:57:02.819Z,16.00
2018-08-11T23:01:56.238Z,16.00
2018-08-11T23:06:49.590Z,15.90
2018-08-11T23:11:43.004Z,15.90
2018-08-11T23:16:36.359Z,15.90
2018-08-11T23:21:29.749Z,15.70
2018-08-11T23:26:23.159Z,15.70
2018-08-11T23:31:16.559Z,15.90
2018-08-11T23:36:09.961Z,15.90
2018-08-11T23:41:03.444Z,15.90
2018-08-11T23:45:56.853Z,15.80
2018-08-11T23:50:50.408Z,15.80
2018-08-11T23:55:43.876Z,15.80
